sensor_id;sensor_type;location;lat;lon;timestamp;P1;durP1;ratioP1;P2;durP2;ratioP2
19705;SDS011;10003;52.506;4.700;2024-01-15T00:02:26;5.93;;;1.90;;
19705;SDS011;10003;52.506;4.700;2024-01-15T00:04:55;3.27;;;1.77;;
19705;SDS011;10003;52.506;4.700;2024-01-15T00:07:23;4.90;;;2.83;;
19705;SDS011;10003;52.506;4.700;2024-01-15T00:09:53;8.30;;;1.93;;
19705;SDS011;10003;52.506;4.700;2024-01-15T00:12:22;3.23;;;2.33;;
19705;SDS011;10003;52.506;4.700;2024-01-15T00:14:50;1.33;;;1.23;;
19705;SDS011;10003;52.506;4.700;2024-01-15T00:17:19;1.93;;;1.17;;
19705;SDS011;10003;52.506;4.700;2024-01-15T00:19:47;3.97;;;1.87;;
19705;SDS011;10003;52.506;4.700;2024-01-15T00:22:16;4.03;;;1.80;;
19705;SDS011;10003;52.506;4.700;2024-01-15T00:24:44;3.83;;;1.20;;
19705;SDS011;10003;52.506;4.700;2024-01-15T00:27:14;1.97;;;1.17;;
19705;SDS011;10003;52.506;4.700;2024-01-15T00:29:43;3.20;;;1.00;;
19705;SDS011;10003;52.506;4.700;2024-01-15T00:32:11;0.90;;;0.90;;
19705;SDS011;10003;52.506;4.700;2024-01-15T00:34:40;1.13;;;1.13;;
19705;SDS011;10003;52.506;4.700;2024-01-15T00:37:08;2.20;;;1.43;;
19705;SDS011;10003;52.506;4.700;2024-01-15T00:39:37;4.97;;;1.43;;
19705;SDS011;10003;52.506;4.700;2024-01-15T00:42:05;4.47;;;1.50;;
19705;SDS011;10003;52.506;4.700;2024-01-15T00:44:35;3.23;;;1.87;;
19705;SDS011;10003;52.506;4.700;2024-01-15T00:47:04;1.73;;;1.63;;
19705;SDS011;10003;52.506;4.700;2024-01-15T00:49:32;4.33;;;2.13;;
19705;SDS011;10003;52.506;4.700;2024-01-15T00:52:01;8.73;;;1.23;;
19705;SDS011;10003;52.506;4.700;2024-01-15T00:54:29;3.87;;;1.77;;
19705;SDS011;10003;52.506;4.700;2024-01-15T00:56:58;2.87;;;2.37;;
19705;SDS011;10003;52.506;4.700;2024-01-15T00:59:26;7.20;;;1.97;;
19705;SDS011;10003;52.506;4.700;2024-01-15T01:01:56;5.53;;;2.40;;
19705;SDS011;10003;52.506;4.700;2024-01-15T01:04:25;9.43;;;2.27;;
19705;SDS011;10003;52.506;4.700;2024-01-15T01:06:54;6.70;;;1.53;;
19705;SDS011;10003;52.506;4.700;2024-01-15T01:09:22;6.50;;;2.60;;
19705;SDS011;10003;52.506;4.700;2024-01-15T01:11:51;3.07;;;2.10;;
19705;SDS011;10003;52.506;4.700;2024-01-15T01:14:20;9.47;;;2.13;;
19705;SDS011;10003;52.506;4.700;2024-01-15T01:16:48;9.07;;;2.03;;
19705;SDS011;10003;52.506;4.700;2024-01-15T01:19:18;3.13;;;1.80;;
19705;SDS011;10003;52.506;4.700;2024-01-15T01:21:47;11.23;;;2.30;;
19705;SDS011;10003;52.506;4.700;2024-01-15T01:24:20;7.87;;;2.47;;
19705;SDS011;10003;52.506;4.700;2024-01-15T01:26:48;1.27;;;1.13;;
19705;SDS011;10003;52.506;4.700;2024-01-15T01:29:20;2.83;;;1.20;;
19705;SDS011;10003;52.506;4.700;2024-01-15T01:31:49;4.03;;;1.27;;
19705;SDS011;10003;52.506;4.700;2024-01-15T01:34:19;2.73;;;1.13;;
19705;SDS011;10003;52.506;4.700;2024-01-15T01:36:48;1.73;;;1.63;;
19705;SDS011;10003;52.506;4.700;2024-01-15T01:39:16;5.70;;;1.53;;
19705;SDS011;10003;52.506;4.700;2024-01-15T01:41:45;2.63;;;1.20;;
19705;SDS011;10003;52.506;4.700;2024-01-15T01:44:13;0.93;;;0.93;;
19705;SDS011;10003;52.506;4.700;2024-01-15T01:46:42;1.53;;;1.10;;
19705;SDS011;10003;52.506;4.700;2024-01-15T01:49:10;4.07;;;2.20;;
19705;SDS011;10003;52.506;4.700;2024-01-15T01:51:40;22.07;;;4.30;;
19705;SDS011;10003;52.506;4.700;2024-01-15T01:54:09;6.77;;;2.07;;
19705;SDS011;10003;52.506;4.700;2024-01-15T01:56:40;1.00;;;1.00;;
19705;SDS011;10003;52.506;4.700;2024-01-15T01:59:09;5.00;;;1.40;;
19705;SDS011;10003;52.506;4.700;2024-01-15T02:01:38;7.47;;;1.90;;
19705;SDS011;10003;52.506;4.700;2024-01-15T02:04:07;7.30;;;2.70;;
19705;SDS011;10003;52.506;4.700;2024-01-15T02:06:36;7.30;;;2.87;;
19705;SDS011;10003;52.506;4.700;2024-01-15T02:09:06;6.30;;;2.10;;
19705;SDS011;10003;52.506;4.700;2024-01-15T02:11:36;7.00;;;2.60;;
19705;SDS011;10003;52.506;4.700;2024-01-15T02:14:05;9.20;;;2.10;;
19705;SDS011;10003;52.506;4.700;2024-01-15T02:16:33;4.70;;;2.07;;
19705;SDS011;10003;52.506;4.700;2024-01-15T02:19:02;7.63;;;2.83;;
19705;SDS011;10003;52.506;4.700;2024-01-15T02:21:31;1.00;;;1.00;;
19705;SDS011;10003;52.506;4.700;2024-01-15T02:24:00;9.47;;;3.50;;
19705;SDS011;10003;52.506;4.700;2024-01-15T02:26:29;8.37;;;2.70;;
19705;SDS011;10003;52.506;4.700;2024-01-15T02:29:02;5.53;;;2.43;;
19705;SDS011;10003;52.506;4.700;2024-01-15T02:31:30;10.13;;;3.33;;
19705;SDS011;10003;52.506;4.700;2024-01-15T02:33:59;7.97;;;3.47;;
19705;SDS011;10003;52.506;4.700;2024-01-15T02:36:27;8.97;;;2.03;;
19705;SDS011;10003;52.506;4.700;2024-01-15T02:38:56;3.90;;;2.37;;
19705;SDS011;10003;52.506;4.700;2024-01-15T02:41:26;4.03;;;2.27;;
19705;SDS011;10003;52.506;4.700;2024-01-15T02:43:54;1.30;;;1.23;;
19705;SDS011;10003;52.506;4.700;2024-01-15T02:46:22;8.00;;;2.07;;
19705;SDS011;10003;52.506;4.700;2024-01-15T02:48:51;3.13;;;1.73;;
19705;SDS011;10003;52.506;4.700;2024-01-15T02:51:19;3.87;;;1.20;;
19705;SDS011;10003;52.506;4.700;2024-01-15T02:53:48;3.63;;;1.77;;
19705;SDS011;10003;52.506;4.700;2024-01-15T02:56:17;2.57;;;1.57;;
19705;SDS011;10003;52.506;4.700;2024-01-15T02:58:49;2.47;;;1.63;;
19705;SDS011;10003;52.506;4.700;2024-01-15T03:01:18;2.37;;;1.73;;
19705;SDS011;10003;52.506;4.700;2024-01-15T03:03:49;1.80;;;1.13;;
19705;SDS011;10003;52.506;4.700;2024-01-15T03:06:18;5.57;;;1.77;;
19705;SDS011;10003;52.506;4.700;2024-01-15T03:08:46;1.20;;;1.10;;
19705;SDS011;10003;52.506;4.700;2024-01-15T03:11:15;5.83;;;2.50;;
19705;SDS011;10003;52.506;4.700;2024-01-15T03:13:47;4.20;;;1.70;;
19705;SDS011;10003;52.506;4.700;2024-01-15T03:16:15;1.53;;;1.20;;
19705;SDS011;10003;52.506;4.700;2024-01-15T03:18:46;6.13;;;2.20;;
19705;SDS011;10003;52.506;4.700;2024-01-15T03:21:14;1.10;;;1.00;;
19705;SDS011;10003;52.506;4.700;2024-01-15T03:23:43;4.43;;;1.37;;
19705;SDS011;10003;52.506;4.700;2024-01-15T03:26:11;1.33;;;1.33;;
19705;SDS011;10003;52.506;4.700;2024-01-15T03:28:40;8.37;;;2.33;;
19705;SDS011;10003;52.506;4.700;2024-01-15T03:31:09;1.50;;;1.10;;
19705;SDS011;10003;52.506;4.700;2024-01-15T03:33:38;3.03;;;1.93;;
19705;SDS011;10003;52.506;4.700;2024-01-15T03:36:07;2.30;;;1.40;;
19705;SDS011;10003;52.506;4.700;2024-01-15T03:38:38;2.23;;;1.67;;
19705;SDS011;10003;52.506;4.700;2024-01-15T03:41:07;5.97;;;1.90;;
19705;SDS011;10003;52.506;4.700;2024-01-15T03:43:35;4.10;;;1.53;;
19705;SDS011;10003;52.506;4.700;2024-01-15T03:46:04;8.30;;;2.47;;
19705;SDS011;10003;52.506;4.700;2024-01-15T03:48:33;5.97;;;2.63;;
19705;SDS011;10003;52.506;4.700;2024-01-15T03:51:02;8.73;;;2.67;;
19705;SDS011;10003;52.506;4.700;2024-01-15T03:53:31;9.03;;;2.63;;
19705;SDS011;10003;52.506;4.700;2024-01-15T03:55:59;1.70;;;1.43;;
19705;SDS011;10003;52.506;4.700;2024-01-15T03:58:28;1.97;;;1.40;;
19705;SDS011;10003;52.506;4.700;2024-01-15T04:00:56;2.43;;;1.23;;
19705;SDS011;10003;52.506;4.700;2024-01-15T04:03:26;1.20;;;1.20;;
19705;SDS011;10003;52.506;4.700;2024-01-15T04:05:56;3.70;;;1.13;;
19705;SDS011;10003;52.506;4.700;2024-01-15T04:08:24;6.13;;;1.50;;
19705;SDS011;10003;52.506;4.700;2024-01-15T04:10:53;1.20;;;1.20;;
19705;SDS011;10003;52.506;4.700;2024-01-15T04:13:22;6.43;;;1.63;;
19705;SDS011;10003;52.506;4.700;2024-01-15T04:15:50;1.37;;;1.27;;
19705;SDS011;10003;52.506;4.700;2024-01-15T04:18:19;3.93;;;1.90;;
19705;SDS011;10003;52.506;4.700;2024-01-15T04:20:47;1.00;;;1.00;;
19705;SDS011;10003;52.506;4.700;2024-01-15T04:23:17;6.93;;;1.47;;
19705;SDS011;10003;52.506;4.700;2024-01-15T04:25:45;1.40;;;1.17;;
19705;SDS011;10003;52.506;4.700;2024-01-15T04:28:14;1.10;;;1.10;;
19705;SDS011;10003;52.506;4.700;2024-01-15T04:30:42;1.10;;;1.00;;
19705;SDS011;10003;52.506;4.700;2024-01-15T04:33:11;3.13;;;1.43;;
19705;SDS011;10003;52.506;4.700;2024-01-15T04:35:40;0.80;;;0.80;;
19705;SDS011;10003;52.506;4.700;2024-01-15T04:38:08;4.33;;;1.80;;
19705;SDS011;10003;52.506;4.700;2024-01-15T04:40:38;2.53;;;1.63;;
19705;SDS011;10003;52.506;4.700;2024-01-15T04:43:07;0.80;;;0.80;;
19705;SDS011;10003;52.506;4.700;2024-01-15T04:45:35;1.10;;;1.00;;
19705;SDS011;10003;52.506;4.700;2024-01-15T04:48:07;2.70;;;2.60;;
19705;SDS011;10003;52.506;4.700;2024-01-15T04:50:35;0.87;;;0.87;;
19705;SDS011;10003;52.506;4.700;2024-01-15T04:53:04;4.80;;;1.73;;
19705;SDS011;10003;52.506;4.700;2024-01-15T04:55:37;0.80;;;0.80;;
19705;SDS011;10003;52.506;4.700;2024-01-15T04:58:06;1.20;;;1.20;;
19705;SDS011;10003;52.506;4.700;2024-01-15T05:00:34;0.80;;;0.80;;
19705;SDS011;10003;52.506;4.700;2024-01-15T05:03:03;0.80;;;0.80;;
19705;SDS011;10003;52.506;4.700;2024-01-15T05:05:32;0.80;;;0.80;;
19705;SDS011;10003;52.506;4.700;2024-01-15T05:08:00;0.70;;;0.70;;
19705;SDS011;10003;52.506;4.700;2024-01-15T05:10:29;0.80;;;0.80;;
19705;SDS011;10003;52.506;4.700;2024-01-15T05:13:01;0.80;;;0.80;;
19705;SDS011;10003;52.506;4.700;2024-01-15T05:15:30;0.70;;;0.70;;
19705;SDS011;10003;52.506;4.700;2024-01-15T05:18:01;0.80;;;0.80;;
19705;SDS011;10003;52.506;4.700;2024-01-15T05:20:29;0.80;;;0.80;;
19705;SDS011;10003;52.506;4.700;2024-01-15T05:22:59;0.70;;;0.70;;
19705;SDS011;10003;52.506;4.700;2024-01-15T05:25:27;0.70;;;0.70;;
19705;SDS011;10003;52.506;4.700;2024-01-15T05:27:57;0.80;;;0.80;;
19705;SDS011;10003;52.506;4.700;2024-01-15T05:30:27;4.43;;;4.10;;
19705;SDS011;10003;52.506;4.700;2024-01-15T05:32:58;0.70;;;0.70;;
19705;SDS011;10003;52.506;4.700;2024-01-15T05:35:27;1.00;;;1.00;;
19705;SDS011;10003;52.506;4.700;2024-01-15T05:37:56;1.23;;;1.23;;
19705;SDS011;10003;52.506;4.700;2024-01-15T05:40:27;0.80;;;0.80;;
19705;SDS011;10003;52.506;4.700;2024-01-15T05:42:55;0.70;;;0.70;;
19705;SDS011;10003;52.506;4.700;2024-01-15T05:45:25;0.70;;;0.70;;
19705;SDS011;10003;52.506;4.700;2024-01-15T05:47:56;0.80;;;0.80;;
19705;SDS011;10003;52.506;4.700;2024-01-15T05:50:25;1.10;;;1.00;;
19705;SDS011;10003;52.506;4.700;2024-01-15T05:52:53;0.70;;;0.70;;
19705;SDS011;10003;52.506;4.700;2024-01-15T05:55:21;0.80;;;0.80;;
19705;SDS011;10003;52.506;4.700;2024-01-15T05:57:50;0.70;;;0.70;;
19705;SDS011;10003;52.506;4.700;2024-01-15T06:00:19;0.70;;;0.70;;
19705;SDS011;10003;52.506;4.700;2024-01-15T06:02:48;4.77;;;1.80;;
19705;SDS011;10003;52.506;4.700;2024-01-15T06:05:18;8.17;;;2.30;;
19705;SDS011;10003;52.506;4.700;2024-01-15T06:07:46;10.23;;;3.07;;
19705;SDS011;10003;52.506;4.700;2024-01-15T06:10:15;9.27;;;2.93;;
19705;SDS011;10003;52.506;4.700;2024-01-15T06:12:45;1.70;;;1.60;;
19705;SDS011;10003;52.506;4.700;2024-01-15T06:15:14;0.80;;;0.80;;
19705;SDS011;10003;52.506;4.700;2024-01-15T06:17:42;0.70;;;0.70;;
19705;SDS011;10003;52.506;4.700;2024-01-15T06:20:11;0.80;;;0.80;;
19705;SDS011;10003;52.506;4.700;2024-01-15T06:22:41;0.80;;;0.80;;
19705;SDS011;10003;52.506;4.700;2024-01-15T06:25:10;0.80;;;0.80;;
19705;SDS011;10003;52.506;4.700;2024-01-15T06:27:38;0.80;;;0.80;;
19705;SDS011;10003;52.506;4.700;2024-01-15T06:30:07;0.80;;;0.80;;
19705;SDS011;10003;52.506;4.700;2024-01-15T06:32:36;0.80;;;0.80;;
19705;SDS011;10003;52.506;4.700;2024-01-15T06:35:05;0.80;;;0.80;;
19705;SDS011;10003;52.506;4.700;2024-01-15T06:37:34;0.70;;;0.70;;
19705;SDS011;10003;52.506;4.700;2024-01-15T06:40:04;0.70;;;0.70;;
19705;SDS011;10003;52.506;4.700;2024-01-15T06:42:33;0.80;;;0.80;;
19705;SDS011;10003;52.506;4.700;2024-01-15T06:45:01;0.80;;;0.80;;
19705;SDS011;10003;52.506;4.700;2024-01-15T06:47:30;2.30;;;2.30;;
19705;SDS011;10003;52.506;4.700;2024-01-15T06:49:59;1.03;;;1.03;;
19705;SDS011;10003;52.506;4.700;2024-01-15T06:52:28;0.70;;;0.70;;
19705;SDS011;10003;52.506;4.700;2024-01-15T06:54:57;0.80;;;0.80;;
19705;SDS011;10003;52.506;4.700;2024-01-15T06:57:27;0.77;;;0.77;;
19705;SDS011;10003;52.506;4.700;2024-01-15T06:59:56;0.80;;;0.80;;
19705;SDS011;10003;52.506;4.700;2024-01-15T07:02:24;0.80;;;0.80;;
19705;SDS011;10003;52.506;4.700;2024-01-15T07:04:53;0.80;;;0.80;;
19705;SDS011;10003;52.506;4.700;2024-01-15T07:07:22;0.80;;;0.80;;
19705;SDS011;10003;52.506;4.700;2024-01-15T07:09:51;0.80;;;0.80;;
19705;SDS011;10003;52.506;4.700;2024-01-15T07:12:20;0.80;;;0.80;;
19705;SDS011;10003;52.506;4.700;2024-01-15T07:14:50;0.90;;;0.90;;
19705;SDS011;10003;52.506;4.700;2024-01-15T07:17:19;0.70;;;0.70;;
19705;SDS011;10003;52.506;4.700;2024-01-15T07:19:48;0.80;;;0.80;;
19705;SDS011;10003;52.506;4.700;2024-01-15T07:22:20;0.80;;;0.80;;
19705;SDS011;10003;52.506;4.700;2024-01-15T07:24:48;0.70;;;0.70;;
19705;SDS011;10003;52.506;4.700;2024-01-15T07:27:17;0.80;;;0.80;;
19705;SDS011;10003;52.506;4.700;2024-01-15T07:29:51;0.80;;;0.80;;
19705;SDS011;10003;52.506;4.700;2024-01-15T07:32:21;0.80;;;0.80;;
19705;SDS011;10003;52.506;4.700;2024-01-15T07:34:50;0.80;;;0.80;;
19705;SDS011;10003;52.506;4.700;2024-01-15T07:37:18;0.80;;;0.80;;
19705;SDS011;10003;52.506;4.700;2024-01-15T07:39:46;0.70;;;0.70;;
19705;SDS011;10003;52.506;4.700;2024-01-15T07:42:15;0.80;;;0.80;;
19705;SDS011;10003;52.506;4.700;2024-01-15T07:44:44;0.80;;;0.80;;
19705;SDS011;10003;52.506;4.700;2024-01-15T07:47:15;0.80;;;0.80;;
19705;SDS011;10003;52.506;4.700;2024-01-15T07:49:43;0.83;;;0.83;;
19705;SDS011;10003;52.506;4.700;2024-01-15T07:52:12;0.80;;;0.80;;
19705;SDS011;10003;52.506;4.700;2024-01-15T07:54:42;0.80;;;0.80;;
19705;SDS011;10003;52.506;4.700;2024-01-15T07:57:12;0.80;;;0.80;;
19705;SDS011;10003;52.506;4.700;2024-01-15T07:59:44;0.80;;;0.80;;
19705;SDS011;10003;52.506;4.700;2024-01-15T08:02:13;0.80;;;0.80;;
19705;SDS011;10003;52.506;4.700;2024-01-15T08:04:45;0.80;;;0.80;;
19705;SDS011;10003;52.506;4.700;2024-01-15T08:07:14;0.80;;;0.80;;
19705;SDS011;10003;52.506;4.700;2024-01-15T08:09:42;0.80;;;0.80;;
19705;SDS011;10003;52.506;4.700;2024-01-15T08:12:16;0.80;;;0.80;;
19705;SDS011;10003;52.506;4.700;2024-01-15T08:14:45;0.80;;;0.80;;
19705;SDS011;10003;52.506;4.700;2024-01-15T08:17:13;0.90;;;0.90;;
19705;SDS011;10003;52.506;4.700;2024-01-15T08:19:43;0.80;;;0.80;;
19705;SDS011;10003;52.506;4.700;2024-01-15T08:22:13;0.80;;;0.80;;
19705;SDS011;10003;52.506;4.700;2024-01-15T08:24:44;0.70;;;0.70;;
19705;SDS011;10003;52.506;4.700;2024-01-15T08:27:32;0.80;;;0.80;;
19705;SDS011;10003;52.506;4.700;2024-01-15T08:30:06;0.80;;;0.80;;
19705;SDS011;10003;52.506;4.700;2024-01-15T08:32:35;0.80;;;0.80;;
19705;SDS011;10003;52.506;4.700;2024-01-15T08:35:10;0.80;;;0.80;;
19705;SDS011;10003;52.506;4.700;2024-01-15T08:37:39;0.80;;;0.80;;
19705;SDS011;10003;52.506;4.700;2024-01-15T08:40:08;2.10;;;1.73;;
19705;SDS011;10003;52.506;4.700;2024-01-15T08:42:39;1.20;;;1.20;;
19705;SDS011;10003;52.506;4.700;2024-01-15T08:45:08;0.80;;;0.80;;
19705;SDS011;10003;52.506;4.700;2024-01-15T08:47:39;1.20;;;1.20;;
19705;SDS011;10003;52.506;4.700;2024-01-15T08:50:10;0.80;;;0.80;;
19705;SDS011;10003;52.506;4.700;2024-01-15T08:52:40;1.93;;;1.83;;
19705;SDS011;10003;52.506;4.700;2024-01-15T08:55:08;0.70;;;0.70;;
19705;SDS011;10003;52.506;4.700;2024-01-15T08:57:37;0.80;;;0.80;;
19705;SDS011;10003;52.506;4.700;2024-01-15T09:00:07;0.80;;;0.80;;
19705;SDS011;10003;52.506;4.700;2024-01-15T09:02:35;0.80;;;0.80;;
19705;SDS011;10003;52.506;4.700;2024-01-15T09:05:04;0.80;;;0.80;;
19705;SDS011;10003;52.506;4.700;2024-01-15T09:07:34;0.80;;;0.80;;
19705;SDS011;10003;52.506;4.700;2024-01-15T09:10:03;1.17;;;1.17;;
19705;SDS011;10003;52.506;4.700;2024-01-15T09:12:31;0.80;;;0.80;;
19705;SDS011;10003;52.506;4.700;2024-01-15T09:15:00;1.17;;;1.17;;
19705;SDS011;10003;52.506;4.700;2024-01-15T09:17:31;0.80;;;0.80;;
19705;SDS011;10003;52.506;4.700;2024-01-15T09:19:59;0.80;;;0.80;;
19705;SDS011;10003;52.506;4.700;2024-01-15T09:22:28;0.80;;;0.80;;
19705;SDS011;10003;52.506;4.700;2024-01-15T09:24:58;0.80;;;0.80;;
19705;SDS011;10003;52.506;4.700;2024-01-15T09:27:37;0.80;;;0.80;;
19705;SDS011;10003;52.506;4.700;2024-01-15T09:30:06;0.80;;;0.80;;
19705;SDS011;10003;52.506;4.700;2024-01-15T09:32:35;0.80;;;0.80;;
19705;SDS011;10003;52.506;4.700;2024-01-15T09:35:05;2.93;;;1.30;;
19705;SDS011;10003;52.506;4.700;2024-01-15T09:37:34;3.00;;;2.70;;
19705;SDS011;10003;52.506;4.700;2024-01-15T09:40:22;0.83;;;0.83;;
19705;SDS011;10003;52.506;4.700;2024-01-15T09:42:52;1.03;;;1.03;;
19705;SDS011;10003;52.506;4.700;2024-01-15T09:45:30;4.97;;;1.00;;
19705;SDS011;10003;52.506;4.700;2024-01-15T09:47:59;0.80;;;0.80;;
19705;SDS011;10003;52.506;4.700;2024-01-15T09:50:28;1.43;;;1.33;;
19705;SDS011;10003;52.506;4.700;2024-01-15T09:52:58;1.03;;;1.03;;
19705;SDS011;10003;52.506;4.700;2024-01-15T09:55:31;0.80;;;0.80;;
19705;SDS011;10003;52.506;4.700;2024-01-15T09:58:02;0.80;;;0.80;;
19705;SDS011;10003;52.506;4.700;2024-01-15T10:00:33;0.80;;;0.80;;
19705;SDS011;10003;52.506;4.700;2024-01-15T10:03:17;0.80;;;0.80;;
19705;SDS011;10003;52.506;4.700;2024-01-15T10:05:46;0.80;;;0.80;;
19705;SDS011;10003;52.506;4.700;2024-01-15T10:08:14;0.80;;;0.80;;
19705;SDS011;10003;52.506;4.700;2024-01-15T10:10:44;0.87;;;0.87;;
19705;SDS011;10003;52.506;4.700;2024-01-15T10:13:13;2.50;;;2.50;;
19705;SDS011;10003;52.506;4.700;2024-01-15T10:15:44;0.80;;;0.80;;
19705;SDS011;10003;52.506;4.700;2024-01-15T10:18:14;0.80;;;0.80;;
19705;SDS011;10003;52.506;4.700;2024-01-15T10:20:43;0.80;;;0.80;;
19705;SDS011;10003;52.506;4.700;2024-01-15T10:23:11;0.80;;;0.80;;
19705;SDS011;10003;52.506;4.700;2024-01-15T10:25:41;0.80;;;0.80;;
19705;SDS011;10003;52.506;4.700;2024-01-15T10:28:13;0.70;;;0.70;;
19705;SDS011;10003;52.506;4.700;2024-01-15T10:30:41;0.70;;;0.70;;
19705;SDS011;10003;52.506;4.700;2024-01-15T10:33:10;0.80;;;0.80;;
19705;SDS011;10003;52.506;4.700;2024-01-15T10:35:39;0.70;;;0.70;;
19705;SDS011;10003;52.506;4.700;2024-01-15T10:38:09;0.80;;;0.80;;
19705;SDS011;10003;52.506;4.700;2024-01-15T10:40:38;1.00;;;1.00;;
19705;SDS011;10003;52.506;4.700;2024-01-15T10:43:10;1.00;;;1.00;;
19705;SDS011;10003;52.506;4.700;2024-01-15T10:45:39;0.80;;;0.80;;
19705;SDS011;10003;52.506;4.700;2024-01-15T10:48:07;0.80;;;0.80;;
19705;SDS011;10003;52.506;4.700;2024-01-15T10:50:36;0.80;;;0.80;;
19705;SDS011;10003;52.506;4.700;2024-01-15T10:53:05;0.80;;;0.80;;
19705;SDS011;10003;52.506;4.700;2024-01-15T10:55:34;0.80;;;0.80;;
19705;SDS011;10003;52.506;4.700;2024-01-15T10:58:03;0.70;;;0.70;;
19705;SDS011;10003;52.506;4.700;2024-01-15T11:00:35;1.20;;;1.20;;
19705;SDS011;10003;52.506;4.700;2024-01-15T11:03:05;0.90;;;0.90;;
19705;SDS011;10003;52.506;4.700;2024-01-15T11:05:34;0.80;;;0.80;;
19705;SDS011;10003;52.506;4.700;2024-01-15T11:08:05;0.80;;;0.80;;
19705;SDS011;10003;52.506;4.700;2024-01-15T11:10:41;0.80;;;0.80;;
19705;SDS011;10003;52.506;4.700;2024-01-15T11:13:15;0.80;;;0.80;;
19705;SDS011;10003;52.506;4.700;2024-01-15T11:15:58;0.80;;;0.80;;
19705;SDS011;10003;52.506;4.700;2024-01-15T11:18:28;3.13;;;3.03;;
19705;SDS011;10003;52.506;4.700;2024-01-15T11:23:44;7.40;;;1.67;;
19705;SDS011;10003;52.506;4.700;2024-01-15T11:26:35;1.27;;;1.20;;
19705;SDS011;10003;52.506;4.700;2024-01-15T11:29:05;5.67;;;2.40;;
19705;SDS011;10003;52.506;4.700;2024-01-15T11:34:21;8.70;;;2.40;;
19705;SDS011;10003;52.506;4.700;2024-01-15T11:37:12;12.30;;;2.90;;
19705;SDS011;10003;52.506;4.700;2024-01-15T11:39:40;7.10;;;2.70;;
19705;SDS011;10003;52.506;4.700;2024-01-15T11:42:10;6.67;;;2.50;;
19705;SDS011;10003;52.506;4.700;2024-01-15T11:44:41;8.30;;;2.27;;
19705;SDS011;10003;52.506;4.700;2024-01-15T11:47:11;2.13;;;1.93;;
19705;SDS011;10003;52.506;4.700;2024-01-15T11:49:51;8.67;;;2.60;;
19705;SDS011;10003;52.506;4.700;2024-01-15T11:52:24;11.67;;;3.33;;
19705;SDS011;10003;52.506;4.700;2024-01-15T11:54:55;2.23;;;1.90;;
19705;SDS011;10003;52.506;4.700;2024-01-15T11:57:25;2.10;;;1.83;;
19705;SDS011;10003;52.506;4.700;2024-01-15T11:59:56;5.03;;;1.40;;
19705;SDS011;10003;52.506;4.700;2024-01-15T12:02:25;6.13;;;1.63;;
19705;SDS011;10003;52.506;4.700;2024-01-15T12:04:55;10.03;;;2.57;;
19705;SDS011;10003;52.506;4.700;2024-01-15T12:07:24;5.60;;;2.73;;
19705;SDS011;10003;52.506;4.700;2024-01-15T12:09:52;9.53;;;3.30;;
19705;SDS011;10003;52.506;4.700;2024-01-15T12:12:23;14.83;;;2.70;;
19705;SDS011;10003;52.506;4.700;2024-01-15T12:14:52;9.10;;;2.70;;
19705;SDS011;10003;52.506;4.700;2024-01-15T12:17:21;3.23;;;1.83;;
19705;SDS011;10003;52.506;4.700;2024-01-15T12:19:49;5.03;;;2.57;;
19705;SDS011;10003;52.506;4.700;2024-01-15T12:22:22;4.00;;;2.77;;
19705;SDS011;10003;52.506;4.700;2024-01-15T12:24:50;3.20;;;2.40;;
19705;SDS011;10003;52.506;4.700;2024-01-15T12:27:19;9.33;;;1.87;;
19705;SDS011;10003;52.506;4.700;2024-01-15T12:29:47;3.60;;;2.13;;
19705;SDS011;10003;52.506;4.700;2024-01-15T12:32:16;2.17;;;1.97;;
19705;SDS011;10003;52.506;4.700;2024-01-15T12:34:44;5.50;;;2.43;;
19705;SDS011;10003;52.506;4.700;2024-01-15T12:37:13;10.80;;;1.73;;
19705;SDS011;10003;52.506;4.700;2024-01-15T12:39:44;2.37;;;1.23;;
19705;SDS011;10003;52.506;4.700;2024-01-15T12:42:13;3.13;;;2.40;;
19705;SDS011;10003;52.506;4.700;2024-01-15T12:44:43;1.57;;;1.47;;
19705;SDS011;10003;52.506;4.700;2024-01-15T12:47:12;1.57;;;1.47;;
19705;SDS011;10003;52.506;4.700;2024-01-15T12:49:46;5.93;;;3.00;;
19705;SDS011;10003;52.506;4.700;2024-01-15T12:52:18;1.33;;;1.23;;
19705;SDS011;10003;52.506;4.700;2024-01-15T12:54:49;0.70;;;0.70;;
19705;SDS011;10003;52.506;4.700;2024-01-15T12:57:18;0.80;;;0.80;;
19705;SDS011;10003;52.506;4.700;2024-01-15T12:59:55;0.80;;;0.80;;
19705;SDS011;10003;52.506;4.700;2024-01-15T13:02:28;0.80;;;0.80;;
19705;SDS011;10003;52.506;4.700;2024-01-15T13:04:58;0.90;;;0.90;;
19705;SDS011;10003;52.506;4.700;2024-01-15T13:07:27;0.80;;;0.80;;
19705;SDS011;10003;52.506;4.700;2024-01-15T13:09:57;0.80;;;0.80;;
19705;SDS011;10003;52.506;4.700;2024-01-15T13:12:26;0.80;;;0.80;;
19705;SDS011;10003;52.506;4.700;2024-01-15T13:15:02;2.57;;;1.20;;
19705;SDS011;10003;52.506;4.700;2024-01-15T13:17:30;4.17;;;2.27;;
19705;SDS011;10003;52.506;4.700;2024-01-15T13:19:59;0.80;;;0.80;;
19705;SDS011;10003;52.506;4.700;2024-01-15T13:22:30;5.57;;;2.83;;
19705;SDS011;10003;52.506;4.700;2024-01-15T13:25:00;7.23;;;3.83;;
19705;SDS011;10003;52.506;4.700;2024-01-15T13:27:30;9.80;;;2.90;;
19705;SDS011;10003;52.506;4.700;2024-01-15T13:29:59;8.13;;;2.53;;
19705;SDS011;10003;52.506;4.700;2024-01-15T13:32:28;8.47;;;2.53;;
19705;SDS011;10003;52.506;4.700;2024-01-15T13:34:57;8.17;;;2.93;;
19705;SDS011;10003;52.506;4.700;2024-01-15T13:37:26;4.57;;;2.23;;
19705;SDS011;10003;52.506;4.700;2024-01-15T13:39:56;7.40;;;3.00;;
19705;SDS011;10003;52.506;4.700;2024-01-15T13:42:26;8.77;;;2.77;;
19705;SDS011;10003;52.506;4.700;2024-01-15T13:44:54;12.77;;;3.47;;
19705;SDS011;10003;52.506;4.700;2024-01-15T13:47:23;11.27;;;3.87;;
19705;SDS011;10003;52.506;4.700;2024-01-15T13:49:52;9.93;;;3.63;;
19705;SDS011;10003;52.506;4.700;2024-01-15T13:52:21;7.63;;;1.93;;
19705;SDS011;10003;52.506;4.700;2024-01-15T13:54:50;7.00;;;3.17;;
19705;SDS011;10003;52.506;4.700;2024-01-15T13:57:18;6.93;;;3.07;;
19705;SDS011;10003;52.506;4.700;2024-01-15T13:59:48;6.93;;;3.60;;
19705;SDS011;10003;52.506;4.700;2024-01-15T14:02:17;13.67;;;3.43;;
19705;SDS011;10003;52.506;4.700;2024-01-15T14:04:49;15.83;;;3.40;;
19705;SDS011;10003;52.506;4.700;2024-01-15T14:07:21;11.80;;;3.07;;
19705;SDS011;10003;52.506;4.700;2024-01-15T14:09:49;9.80;;;2.67;;
19705;SDS011;10003;52.506;4.700;2024-01-15T14:12:19;2.87;;;2.63;;
19705;SDS011;10003;52.506;4.700;2024-01-15T14:14:49;5.23;;;2.20;;
19705;SDS011;10003;52.506;4.700;2024-01-15T14:17:18;5.63;;;2.50;;
19705;SDS011;10003;52.506;4.700;2024-01-15T14:19:46;4.00;;;2.10;;
19705;SDS011;10003;52.506;4.700;2024-01-15T14:22:15;4.97;;;1.67;;
19705;SDS011;10003;52.506;4.700;2024-01-15T14:24:45;5.43;;;1.93;;
19705;SDS011;10003;52.506;4.700;2024-01-15T14:27:16;7.00;;;1.80;;
19705;SDS011;10003;52.506;4.700;2024-01-15T14:29:44;5.07;;;3.47;;
19705;SDS011;10003;52.506;4.700;2024-01-15T14:32:16;2.80;;;1.87;;
19705;SDS011;10003;52.506;4.700;2024-01-15T14:34:44;5.43;;;2.07;;
19705;SDS011;10003;52.506;4.700;2024-01-15T14:37:13;3.33;;;2.00;;
19705;SDS011;10003;52.506;4.700;2024-01-15T14:39:41;4.83;;;2.13;;
19705;SDS011;10003;52.506;4.700;2024-01-15T14:42:10;3.53;;;1.80;;
19705;SDS011;10003;52.506;4.700;2024-01-15T14:44:38;6.87;;;2.40;;
19705;SDS011;10003;52.506;4.700;2024-01-15T14:47:08;5.67;;;2.33;;
19705;SDS011;10003;52.506;4.700;2024-01-15T14:49:40;3.17;;;2.67;;
19705;SDS011;10003;52.506;4.700;2024-01-15T14:52:09;8.10;;;3.00;;
19705;SDS011;10003;52.506;4.700;2024-01-15T14:54:39;9.90;;;2.97;;
19705;SDS011;10003;52.506;4.700;2024-01-15T14:57:11;5.47;;;2.17;;
19705;SDS011;10003;52.506;4.700;2024-01-15T14:59:40;4.47;;;1.80;;
19705;SDS011;10003;52.506;4.700;2024-01-15T15:02:09;4.63;;;2.03;;
19705;SDS011;10003;52.506;4.700;2024-01-15T15:04:42;4.70;;;2.20;;
19705;SDS011;10003;52.506;4.700;2024-01-15T15:07:15;2.23;;;1.57;;
19705;SDS011;10003;52.506;4.700;2024-01-15T15:09:43;3.90;;;2.13;;